sensor_id;sensor_type;location;lat;lon;timestamp;temperature;humidity
6724;DHT22;3399;52.530;13.304;2023-06-05T00:00:33;15.60;56.10
6724;DHT22;3399;52.530;13.304;2023-06-05T00:02:59;15.60;56.60
6724;DHT22;3399;52.530;13.304;2023-06-05T00:05:24;15.50;56.60
6724;DHT22;3399;52.530;13.304;2023-06-05T00:07:52;15.40;56.40
6724;DHT22;3399;52.530;13.304;2023-06-05T00:10:18;15.50;56.10
6724;DHT22;3399;52.530;13.304;2023-06-05T00:12:43;15.50;56.00
6724;DHT22;3399;52.530;13.304;2023-06-05T00:15:10;15.40;56.00
6724;DHT22;3399;52.530;13.304;2023-06-05T00:17:36;15.20;56.20
6724;DHT22;3399;52.530;13.304;2023-06-05T00:20:02;15.20;56.40
6724;DHT22;3399;52.530;13.304;2023-06-05T00:22:29;15.20;56.40
6724;DHT22;3399;52.530;13.304;2023-06-05T00:24:56;15.20;56.50
6724;DHT22;3399;52.530;13.304;2023-06-05T00:27:22;15.10;56.60
6724;DHT22;3399;52.530;13.304;2023-06-05T00:29:48;15.00;56.90
6724;DHT22;3399;52.530;13.304;2023-06-05T00:32:13;15.00;57.00
6724;DHT22;3399;52.530;13.304;2023-06-05T00:34:39;14.80;57.50
6724;DHT22;3399;52.530;13.304;2023-06-05T00:37:04;14.70;58.00
6724;DHT22;3399;52.530;13.304;2023-06-05T00:39:30;14.70;58.30
6724;DHT22;3399;52.530;13.304;2023-06-05T00:41:55;14.60;58.50
6724;DHT22;3399;52.530;13.304;2023-06-05T00:44:21;14.60;58.70
6724;DHT22;3399;52.530;13.304;2023-06-05T00:46:48;14.50;59.00
6724;DHT22;3399;52.530;13.304;2023-06-05T00:49:15;14.40;59.40
6724;DHT22;3399;52.530;13.304;2023-06-05T00:51:42;14.40;59.50
6724;DHT22;3399;52.530;13.304;2023-06-05T00:54:09;14.40;59.60
6724;DHT22;3399;52.530;13.304;2023-06-05T00:56:35;14.50;59.70
6724;DHT22;3399;52.530;13.304;2023-06-05T00:59:02;14.40;59.60
6724;DHT22;3399;52.530;13.304;2023-06-05T01:01:28;14.30;60.00
6724;DHT22;3399;52.530;13.304;2023-06-05T01:03:57;14.20;61.00
6724;DHT22;3399;52.530;13.304;2023-06-05T01:06:28;14.20;61.10
6724;DHT22;3399;52.530;13.304;2023-06-05T01:08:54;14.20;61.10
6724;DHT22;3399;52.530;13.304;2023-06-05T01:11:32;14.30;60.50
6724;DHT22;3399;52.530;13.304;2023-06-05T01:16:33;14.30;61.00
6724;DHT22;3399;52.530;13.304;2023-06-05T01:19:00;14.20;61.50
6724;DHT22;3399;52.530;13.304;2023-06-05T01:21:30;14.20;62.20
6724;DHT22;3399;52.530;13.304;2023-06-05T01:23:57;14.20;62.10
6724;DHT22;3399;52.530;13.304;2023-06-05T01:26:28;14.10;62.50
6724;DHT22;3399;52.530;13.304;2023-06-05T01:28:57;14.10;63.50
6724;DHT22;3399;52.530;13.304;2023-06-05T01:31:23;14.10;64.40
6724;DHT22;3399;52.530;13.304;2023-06-05T01:34:00;14.10;64.40
6724;DHT22;3399;52.530;13.304;2023-06-05T01:36:28;14.10;64.00
6724;DHT22;3399;52.530;13.304;2023-06-05T01:38:55;14.00;64.60
6724;DHT22;3399;52.530;13.304;2023-06-05T01:41:22;14.00;64.20
6724;DHT22;3399;52.530;13.304;2023-06-05T01:43:48;13.90;64.90
6724;DHT22;3399;52.530;13.304;2023-06-05T01:46:18;14.00;65.50
6724;DHT22;3399;52.530;13.304;2023-06-05T01:48:44;14.00;66.50
6724;DHT22;3399;52.530;13.304;2023-06-05T01:51:10;13.90;64.60
6724;DHT22;3399;52.530;13.304;2023-06-05T01:53:35;13.90;66.60
6724;DHT22;3399;52.530;13.304;2023-06-05T01:56:01;13.90;66.90
6724;DHT22;3399;52.530;13.304;2023-06-05T01:58:28;13.90;66.70
6724;DHT22;3399;52.530;13.304;2023-06-05T02:00:54;13.80;65.60
6724;DHT22;3399;52.530;13.304;2023-06-05T02:03:22;13.80;66.20
6724;DHT22;3399;52.530;13.304;2023-06-05T02:05:48;13.80;66.00
6724;DHT22;3399;52.530;13.304;2023-06-05T02:08:14;13.80;66.10
6724;DHT22;3399;52.530;13.304;2023-06-05T02:10:47;13.70;66.50
6724;DHT22;3399;52.530;13.304;2023-06-05T02:13:13;13.80;67.20
6724;DHT22;3399;52.530;13.304;2023-06-05T02:15:41;13.70;67.00
6724;DHT22;3399;52.530;13.304;2023-06-05T02:18:07;13.60;67.50
6724;DHT22;3399;52.530;13.304;2023-06-05T02:20:33;13.60;68.10
6724;DHT22;3399;52.530;13.304;2023-06-05T02:23:00;13.60;67.80
6724;DHT22;3399;52.530;13.304;2023-06-05T02:25:25;13.60;69.00
6724;DHT22;3399;52.530;13.304;2023-06-05T02:27:54;13.60;70.10
6724;DHT22;3399;52.530;13.304;2023-06-05T02:30:21;13.60;69.40
6724;DHT22;3399;52.530;13.304;2023-06-05T02:32:47;13.50;69.30
6724;DHT22;3399;52.530;13.304;2023-06-05T02:35:14;13.50;69.60
6724;DHT22;3399;52.530;13.304;2023-06-05T02:37:43;13.50;69.90
6724;DHT22;3399;52.530;13.304;2023-06-05T02:40:13;13.50;71.90
6724;DHT22;3399;52.530;13.304;2023-06-05T02:42:39;13.50;70.60
6724;DHT22;3399;52.530;13.304;2023-06-05T02:45:06;13.50;71.00
6724;DHT22;3399;52.530;13.304;2023-06-05T02:47:32;13.50;71.20
6724;DHT22;3399;52.530;13.304;2023-06-05T02:49:58;13.50;72.60
6724;DHT22;3399;52.530;13.304;2023-06-05T02:52:24;13.50;73.90
6724;DHT22;3399;52.530;13.304;2023-06-05T02:55:00;13.50;73.50
6724;DHT22;3399;52.530;13.304;2023-06-05T02:57:26;13.40;73.30
6724;DHT22;3399;52.530;13.304;2023-06-05T02:59:52;13.30;73.60
6724;DHT22;3399;52.530;13.304;2023-06-05T03:02:17;13.20;73.50
6724;DHT22;3399;52.530;13.304;2023-06-05T03:04:43;13.20;74.10
6724;DHT22;3399;52.530;13.304;2023-06-05T03:07:09;13.20;74.00
6724;DHT22;3399;52.530;13.304;2023-06-05T03:09:35;13.10;75.20
6724;DHT22;3399;52.530;13.304;2023-06-05T03:12:01;13.00;75.20
6724;DHT22;3399;52.530;13.304;2023-06-05T03:14:27;13.10;75.50
6724;DHT22;3399;52.530;13.304;2023-06-05T03:16:52;13.00;75.50
6724;DHT22;3399;52.530;13.304;2023-06-05T03:19:19;13.20;74.90
6724;DHT22;3399;52.530;13.304;2023-06-05T03:21:44;13.30;74.10
6724;DHT22;3399;52.530;13.304;2023-06-05T03:24:14;13.20;74.50
6724;DHT22;3399;52.530;13.304;2023-06-05T03:26:40;13.30;74.30
6724;DHT22;3399;52.530;13.304;2023-06-05T03:29:07;13.30;74.60
6724;DHT22;3399;52.530;13.304;2023-06-05T03:31:33;13.30;75.60
6724;DHT22;3399;52.530;13.304;2023-06-05T03:33:59;13.30;75.60
6724;DHT22;3399;52.530;13.304;2023-06-05T03:36:28;13.30;76.00
6724;DHT22;3399;52.530;13.304;2023-06-05T03:38:55;13.30;75.40
6724;DHT22;3399;52.530;13.304;2023-06-05T03:41:20;13.30;75.90
6724;DHT22;3399;52.530;13.304;2023-06-05T03:43:47;13.30;74.90
6724;DHT22;3399;52.530;13.304;2023-06-05T03:46:12;13.20;75.10
6724;DHT22;3399;52.530;13.304;2023-06-05T03:48:44;13.30;75.00
6724;DHT22;3399;52.530;13.304;2023-06-05T03:51:09;13.20;74.70
6724;DHT22;3399;52.530;13.304;2023-06-05T03:53:35;13.30;75.50
6724;DHT22;3399;52.530;13.304;2023-06-05T03:56:05;13.40;76.60
6724;DHT22;3399;52.530;13.304;2023-06-05T03:58:31;13.30;80.00
6724;DHT22;3399;52.530;13.304;2023-06-05T04:00:56;13.40;79.20
6724;DHT22;3399;52.530;13.304;2023-06-05T04:03:23;13.30;78.20
6724;DHT22;3399;52.530;13.304;2023-06-05T04:05:48;13.30;77.80
6724;DHT22;3399;52.530;13.304;2023-06-05T04:08:14;13.40;77.30
6724;DHT22;3399;52.530;13.304;2023-06-05T04:10:40;13.40;79.00
6724;DHT22;3399;52.530;13.304;2023-06-05T04:13:05;13.40;79.30
6724;DHT22;3399;52.530;13.304;2023-06-05T04:15:31;13.40;79.60
6724;DHT22;3399;52.530;13.304;2023-06-05T04:17:56;13.40;79.70
6724;DHT22;3399;52.530;13.304;2023-06-05T04:20:22;13.40;80.50
6724;DHT22;3399;52.530;13.304;2023-06-05T04:22:49;13.50;79.50
6724;DHT22;3399;52.530;13.304;2023-06-05T04:25:15;13.40;80.80
6724;DHT22;3399;52.530;13.304;2023-06-05T04:27:42;13.50;80.60
6724;DHT22;3399;52.530;13.304;2023-06-05T04:30:09;13.60;81.40
6724;DHT22;3399;52.530;13.304;2023-06-05T04:32:37;13.60;81.10
6724;DHT22;3399;52.530;13.304;2023-06-05T04:35:05;13.60;85.60
6724;DHT22;3399;52.530;13.304;2023-06-05T04:37:32;13.70;87.90
6724;DHT22;3399;52.530;13.304;2023-06-05T04:39:57;13.70;89.90
6724;DHT22;3399;52.530;13.304;2023-06-05T04:42:26;13.70;90.20
6724;DHT22;3399;52.530;13.304;2023-06-05T04:44:59;13.80;90.40
6724;DHT22;3399;52.530;13.304;2023-06-05T04:47:27;13.80;88.80
6724;DHT22;3399;52.530;13.304;2023-06-05T04:49:52;13.90;92.20
6724;DHT22;3399;52.530;13.304;2023-06-05T04:52:19;13.90;92.90
6724;DHT22;3399;52.530;13.304;2023-06-05T04:54:46;14.00;92.80
6724;DHT22;3399;52.530;13.304;2023-06-05T04:57:11;14.00;93.60
6724;DHT22;3399;52.530;13.304;2023-06-05T04:59:37;14.00;94.30
6724;DHT22;3399;52.530;13.304;2023-06-05T05:02:03;14.10;94.60
6724;DHT22;3399;52.530;13.304;2023-06-05T05:04:29;14.10;94.30
6724;DHT22;3399;52.530;13.304;2023-06-05T05:06:55;14.20;92.50
6724;DHT22;3399;52.530;13.304;2023-06-05T05:09:26;14.30;92.40
6724;DHT22;3399;52.530;13.304;2023-06-05T05:11:52;14.30;92.50
6724;DHT22;3399;52.530;13.304;2023-06-05T05:14:17;14.40;90.60
6724;DHT22;3399;52.530;13.304;2023-06-05T05:16:43;14.50;86.20
6724;DHT22;3399;52.530;13.304;2023-06-05T05:19:08;14.60;84.00
6724;DHT22;3399;52.530;13.304;2023-06-05T05:21:34;14.70;84.70
6724;DHT22;3399;52.530;13.304;2023-06-05T05:24:00;14.80;85.60
6724;DHT22;3399;52.530;13.304;2023-06-05T05:26:25;14.90;84.60
6724;DHT22;3399;52.530;13.304;2023-06-05T05:28:51;15.00;87.00
6724;DHT22;3399;52.530;13.304;2023-06-05T05:31:17;15.10;88.80
6724;DHT22;3399;52.530;13.304;2023-06-05T05:33:42;15.10;89.50
6724;DHT22;3399;52.530;13.304;2023-06-05T05:36:08;15.20;86.10
6724;DHT22;3399;52.530;13.304;2023-06-05T05:38:33;15.20;87.10
6724;DHT22;3399;52.530;13.304;2023-06-05T05:40:59;15.30;80.90
6724;DHT22;3399;52.530;13.304;2023-06-05T05:43:25;15.40;83.00
6724;DHT22;3399;52.530;13.304;2023-06-05T05:45:51;15.50;81.90
6724;DHT22;3399;52.530;13.304;2023-06-05T05:48:16;15.60;78.70
6724;DHT22;3399;52.530;13.304;2023-06-05T05:50:42;15.60;80.50
6724;DHT22;3399;52.530;13.304;2023-06-05T05:53:08;15.90;74.20
6724;DHT22;3399;52.530;13.304;2023-06-05T05:55:34;15.90;76.90
6724;DHT22;3399;52.530;13.304;2023-06-05T05:57:59;16.00;74.60
6724;DHT22;3399;52.530;13.304;2023-06-05T06:00:25;16.20;72.50
6724;DHT22;3399;52.530;13.304;2023-06-05T06:02:51;16.30;71.70
6724;DHT22;3399;52.530;13.304;2023-06-05T06:05:17;16.50;71.20
6724;DHT22;3399;52.530;13.304;2023-06-05T06:07:43;16.80;69.60
6724;DHT22;3399;52.530;13.304;2023-06-05T06:10:09;17.00;68.30
6724;DHT22;3399;52.530;13.304;2023-06-05T06:12:37;17.10;66.40
6724;DHT22;3399;52.530;13.304;2023-06-05T06:15:03;17.20;66.30
6724;DHT22;3399;52.530;13.304;2023-06-05T06:17:29;17.30;66.00
6724;DHT22;3399;52.530;13.304;2023-06-05T06:19:55;17.40;68.10
6724;DHT22;3399;52.530;13.304;2023-06-05T06:22:20;17.50;65.40
6724;DHT22;3399;52.530;13.304;2023-06-05T06:24:46;17.60;65.20
6724;DHT22;3399;52.530;13.304;2023-06-05T06:27:13;17.60;66.10
6724;DHT22;3399;52.530;13.304;2023-06-05T06:29:49;17.80;65.00
6724;DHT22;3399;52.530;13.304;2023-06-05T06:32:19;17.80;63.30
6724;DHT22;3399;52.530;13.304;2023-06-05T06:34:44;17.90;62.50
6724;DHT22;3399;52.530;13.304;2023-06-05T06:37:13;18.00;62.30
6724;DHT22;3399;52.530;13.304;2023-06-05T06:39:41;18.10;63.10
6724;DHT22;3399;52.530;13.304;2023-06-05T06:42:06;18.10;61.80
6724;DHT22;3399;52.530;13.304;2023-06-05T06:44:32;18.10;61.00
6724;DHT22;3399;52.530;13.304;2023-06-05T06:46:57;18.30;60.50
6724;DHT22;3399;52.530;13.304;2023-06-05T06:49:23;18.30;59.90
6724;DHT22;3399;52.530;13.304;2023-06-05T06:51:49;18.30;60.80
6724;DHT22;3399;52.530;13.304;2023-06-05T06:54:14;18.50;61.20
6724;DHT22;3399;52.530;13.304;2023-06-05T06:56:40;18.50;58.50
6724;DHT22;3399;52.530;13.304;2023-06-05T06:59:14;18.70;57.80
6724;DHT22;3399;52.530;13.304;2023-06-05T07:01:44;18.70;59.50
6724;DHT22;3399;52.530;13.304;2023-06-05T07:04:14;18.90;57.10
6724;DHT22;3399;52.530;13.304;2023-06-05T07:06:46;19.00;56.80
6724;DHT22;3399;52.530;13.304;2023-06-05T07:09:12;18.80;58.20
6724;DHT22;3399;52.530;13.304;2023-06-05T07:11:37;18.80;57.10
6724;DHT22;3399;52.530;13.304;2023-06-05T07:14:03;19.00;57.70
6724;DHT22;3399;52.530;13.304;2023-06-05T07:16:29;19.10;57.10
6724;DHT22;3399;52.530;13.304;2023-06-05T07:18:54;19.30;55.20
6724;DHT22;3399;52.530;13.304;2023-06-05T07:21:21;19.40;55.10
6724;DHT22;3399;52.530;13.304;2023-06-05T07:23:50;19.50;55.00
6724;DHT22;3399;52.530;13.304;2023-06-05T07:26:19;19.40;55.30
6724;DHT22;3399;52.530;13.304;2023-06-05T07:28:45;19.40;56.30
6724;DHT22;3399;52.530;13.304;2023-06-05T07:31:13;19.40;54.80
6724;DHT22;3399;52.530;13.304;2023-06-05T07:33:38;19.50;55.00
6724;DHT22;3399;52.530;13.304;2023-06-05T07:36:04;19.50;54.70
6724;DHT22;3399;52.530;13.304;2023-06-05T07:38:29;19.60;54.10
6724;DHT22;3399;52.530;13.304;2023-06-05T07:40:55;19.50;56.80
6724;DHT22;3399;52.530;13.304;2023-06-05T07:43:26;19.60;55.30
6724;DHT22;3399;52.530;13.304;2023-06-05T07:45:51;19.60;55.90
6724;DHT22;3399;52.530;13.304;2023-06-05T07:48:17;19.60;54.00
6724;DHT22;3399;52.530;13.304;2023-06-05T07:50:42;20.00;52.50
6724;DHT22;3399;52.530;13.304;2023-06-05T07:53:08;20.20;51.80
6724;DHT22;3399;52.530;13.304;2023-06-05T07:55:33;20.30;51.20
6724;DHT22;3399;52.530;13.304;2023-06-05T07:57:59;20.10;52.40
6724;DHT22;3399;52.530;13.304;2023-06-05T08:00:26;20.30;50.10
6724;DHT22;3399;52.530;13.304;2023-06-05T08:02:52;20.50;50.50
6724;DHT22;3399;52.530;13.304;2023-06-05T08:05:18;20.50;50.70
6724;DHT22;3399;52.530;13.304;2023-06-05T08:07:45;20.50;51.60
6724;DHT22;3399;52.530;13.304;2023-06-05T08:10:11;20.50;51.30
6724;DHT22;3399;52.530;13.304;2023-06-05T08:12:37;20.50;53.10
6724;DHT22;3399;52.530;13.304;2023-06-05T08:15:03;20.60;52.40
6724;DHT22;3399;52.530;13.304;2023-06-05T08:17:28;20.80;50.00
6724;DHT22;3399;52.530;13.304;2023-06-05T08:19:54;20.80;50.30
6724;DHT22;3399;52.530;13.304;2023-06-05T08:22:19;20.80;48.90
6724;DHT22;3399;52.530;13.304;2023-06-05T08:24:45;21.00;48.50
6724;DHT22;3399;52.530;13.304;2023-06-05T08:27:11;21.00;50.00
6724;DHT22;3399;52.530;13.304;2023-06-05T08:29:36;21.00;48.70
6724;DHT22;3399;52.530;13.304;2023-06-05T08:32:05;21.20;47.90
6724;DHT22;3399;52.530;13.304;2023-06-05T08:34:31;21.10;49.30
6724;DHT22;3399;52.530;13.304;2023-06-05T08:37:03;21.00;50.20
6724;DHT22;3399;52.530;13.304;2023-06-05T08:39:29;21.00;47.40
6724;DHT22;3399;52.530;13.304;2023-06-05T08:42:00;21.20;48.80
6724;DHT22;3399;52.530;13.304;2023-06-05T08:44:29;21.30;49.10
6724;DHT22;3399;52.530;13.304;2023-06-05T08:47:00;21.30;47.70
6724;DHT22;3399;52.530;13.304;2023-06-05T08:49:27;21.50;48.70
6724;DHT22;3399;52.530;13.304;2023-06-05T08:52:05;21.60;47.90
6724;DHT22;3399;52.530;13.304;2023-06-05T08:54:49;21.60;47.70
6724;DHT22;3399;52.530;13.304;2023-06-05T08:57:15;21.60;48.20
6724;DHT22;3399;52.530;13.304;2023-06-05T08:59:42;21.70;46.80
6724;DHT22;3399;52.530;13.304;2023-06-05T09:02:09;21.90;48.00
6724;DHT22;3399;52.530;13.304;2023-06-05T09:04:35;22.00;48.60
6724;DHT22;3399;52.530;13.304;2023-06-05T09:07:01;22.00;47.10
6724;DHT22;3399;52.530;13.304;2023-06-05T09:09:26;22.10;47.20
6724;DHT22;3399;52.530;13.304;2023-06-05T09:12:06;22.00;46.70
6724;DHT22;3399;52.530;13.304;2023-06-05T09:14:32;21.90;47.90
6724;DHT22;3399;52.530;13.304;2023-06-05T09:17:02;22.00;47.60
6724;DHT22;3399;52.530;13.304;2023-06-05T09:19:38;22.20;47.20
6724;DHT22;3399;52.530;13.304;2023-06-05T09:22:06;22.30;46.50
6724;DHT22;3399;52.530;13.304;2023-06-05T09:24:32;22.40;47.00
6724;DHT22;3399;52.530;13.304;2023-06-05T09:27:02;22.50;45.20
6724;DHT22;3399;52.530;13.304;2023-06-05T09:29:29;22.40;45.40
6724;DHT22;3399;52.530;13.304;2023-06-05T09:32:00;22.40;45.00
6724;DHT22;3399;52.530;13.304;2023-06-05T09:34:27;22.50;45.70
6724;DHT22;3399;52.530;13.304;2023-06-05T09:36:53;22.60;46.90
6724;DHT22;3399;52.530;13.304;2023-06-05T09:39:20;22.60;45.50
6724;DHT22;3399;52.530;13.304;2023-06-05T09:41:47;22.70;44.80
6724;DHT22;3399;52.530;13.304;2023-06-05T09:44:14;22.70;44.50
6724;DHT22;3399;52.530;13.304;2023-06-05T09:47:03;22.80;44.90
6724;DHT22;3399;52.530;13.304;2023-06-05T09:52:13;23.00;44.20
6724;DHT22;3399;52.530;13.304;2023-06-05T09:54:42;22.90;45.40
6724;DHT22;3399;52.530;13.304;2023-06-05T09:57:11;22.80;43.10
6724;DHT22;3399;52.530;13.304;2023-06-05T09:59:51;22.60;52.50
6724;DHT22;3399;52.530;13.304;2023-06-05T10:02:20;22.30;64.20
6724;DHT22;3399;52.530;13.304;2023-06-05T10:04:48;21.90;47.90
6724;DHT22;3399;52.530;13.304;2023-06-05T10:07:15;21.70;53.00
6724;DHT22;3399;52.530;13.304;2023-06-05T10:09:41;21.40;66.80
6724;DHT22;3399;52.530;13.304;2023-06-05T10:12:08;20.90;55.60
6724;DHT22;3399;52.530;13.304;2023-06-05T10:14:36;21.20;55.50
6724;DHT22;3399;52.530;13.304;2023-06-05T10:17:02;21.00;64.20
6724;DHT22;3399;52.530;13.304;2023-06-05T10:19:28;21.40;52.40
6724;DHT22;3399;52.530;13.304;2023-06-05T10:21:54;21.30;50.20
6724;DHT22;3399;52.530;13.304;2023-06-05T10:29:57;21.70;64.40
6724;DHT22;3399;52.530;13.304;2023-06-05T10:32:55;21.70;48.40
6724;DHT22;3399;52.530;13.304;2023-06-05T10:35:53;21.30;57.80
6724;DHT22;3399;52.530;13.304;2023-06-05T10:38:26;21.20;61.10
6724;DHT22;3399;52.530;13.304;2023-06-05T10:40:55;20.90;57.70
6724;DHT22;3399;52.530;13.304;2023-06-05T10:43:48;21.30;56.20
6724;DHT22;3399;52.530;13.304;2023-06-05T10:46:31;21.80;53.60
6724;DHT22;3399;52.530;13.304;2023-06-05T10:49:18;21.70;57.80
6724;DHT22;3399;52.530;13.304;2023-06-05T10:51:50;21.90;50.10
6724;DHT22;3399;52.530;13.304;2023-06-05T10:56:55;22.20;51.70
6724;DHT22;3399;52.530;13.304;2023-06-05T11:07:15;22.90;48.60
6724;DHT22;3399;52.530;13.304;2023-06-05T11:12:26;24.00;47.80
6724;DHT22;3399;52.530;13.304;2023-06-05T11:14:51;24.30;43.10
6724;DHT22;3399;52.530;13.304;2023-06-05T11:17:29;24.20;47.60
6724;DHT22;3399;52.530;13.304;2023-06-05T11:19:55;24.30;47.70
6724;DHT22;3399;52.530;13.304;2023-06-05T11:22:24;24.50;43.50
6724;DHT22;3399;52.530;13.304;2023-06-05T11:27:43;24.70;47.20
6724;DHT22;3399;52.530;13.304;2023-06-05T11:30:12;24.70;44.00
6724;DHT22;3399;52.530;13.304;2023-06-05T11:32:38;24.90;45.80
6724;DHT22;3399;52.530;13.304;2023-06-05T11:35:04;24.70;47.60
6724;DHT22;3399;52.530;13.304;2023-06-05T11:37:30;24.90;46.80
6724;DHT22;3399;52.530;13.304;2023-06-05T11:39:58;24.90;45.60
6724;DHT22;3399;52.530;13.304;2023-06-05T11:42:24;24.70;44.40
6724;DHT22;3399;52.530;13.304;2023-06-05T11:44:49;25.20;43.40
6724;DHT22;3399;52.530;13.304;2023-06-05T11:47:26;25.40;46.10
6724;DHT22;3399;52.530;13.304;2023-06-05T11:49:53;25.40;43.70
6724;DHT22;3399;52.530;13.304;2023-06-05T11:52:20;25.40;42.70
6724;DHT22;3399;52.530;13.304;2023-06-05T11:54:48;25.60;45.30
6724;DHT22;3399;52.530;13.304;2023-06-05T11:57:44;25.90;39.90
6724;DHT22;3399;52.530;13.304;2023-06-05T12:00:11;26.30;38.60
6724;DHT22;3399;52.530;13.304;2023-06-05T12:02:42;26.00;41.50
6724;DHT22;3399;52.530;13.304;2023-06-05T12:05:08;25.80;41.00
6724;DHT22;3399;52.530;13.304;2023-06-05T12:07:34;26.20;38.80
6724;DHT22;3399;52.530;13.304;2023-06-05T12:10:06;26.40;40.00
6724;DHT22;3399;52.530;13.304;2023-06-05T12:12:33;26.60;40.60
6724;DHT22;3399;52.530;13.304;2023-06-05T12:15:17;26.50;38.10
6724;DHT22;3399;52.530;13.304;2023-06-05T12:17:54;26.50;37.80
6724;DHT22;3399;52.530;13.304;2023-06-05T12:20:20;26.40;39.50
6724;DHT22;3399;52.530;13.304;2023-06-05T12:22:47;26.50;42.20
6724;DHT22;3399;52.530;13.304;2023-06-05T12:25:16;26.20;42.10
6724;DHT22;3399;52.530;13.304;2023-06-05T12:27:43;26.10;41.90
6724;DHT22;3399;52.530;13.304;2023-06-05T12:30:11;26.30;42.20
6724;DHT22;3399;52.530;13.304;2023-06-05T12:32:37;26.70;37.20
6724;DHT22;3399;52.530;13.304;2023-06-05T12:35:05;27.10;37.80
6724;DHT22;3399;52.530;13.304;2023-06-05T12:37:34;27.00;38.80
6724;DHT22;3399;52.530;13.304;2023-06-05T12:40:03;27.30;37.60
6724;DHT22;3399;52.530;13.304;2023-06-05T12:42:35;27.20;39.80
6724;DHT22;3399;52.530;13.304;2023-06-05T12:45:01;26.90;39.10
6724;DHT22;3399;52.530;13.304;2023-06-05T12:47:27;26.60;40.40
6724;DHT22;3399;52.530;13.304;2023-06-05T12:49:52;26.70;40.50
6724;DHT22;3399;52.530;13.304;2023-06-05T12:52:18;26.80;38.00
6724;DHT22;3399;52.530;13.304;2023-06-05T12:54:44;26.90;38.00
6724;DHT22;3399;52.530;13.304;2023-06-05T12:57:09;27.00;37.70
6724;DHT22;3399;52.530;13.304;2023-06-05T12:59:35;27.20;37.90
6724;DHT22;3399;52.530;13.304;2023-06-05T13:02:00;27.30;34.90
6724;DHT22;3399;52.530;13.304;2023-06-05T13:04:26;27.10;36.70
6724;DHT22;3399;52.530;13.304;2023-06-05T13:06:51;27.60;35.30
6724;DHT22;3399;52.530;13.304;2023-06-05T13:09:19;27.40;36.00
6724;DHT22;3399;52.530;13.304;2023-06-05T13:11:45;27.30;37.30
6724;DHT22;3399;52.530;13.304;2023-06-05T13:14:10;27.50;36.40
6724;DHT22;3399;52.530;13.304;2023-06-05T13:16:36;27.60;37.90
6724;DHT22;3399;52.530;13.304;2023-06-05T13:19:01;27.70;37.20
6724;DHT22;3399;52.530;13.304;2023-06-05T13:21:27;27.50;39.30
6724;DHT22;3399;52.530;13.304;2023-06-05T13:23:52;27.10;38.70
6724;DHT22;3399;52.530;13.304;2023-06-05T13:26:18;27.40;37.00
6724;DHT22;3399;52.530;13.304;2023-06-05T13:28:43;27.80;38.30
6724;DHT22;3399;52.530;13.304;2023-06-05T13:31:12;28.00;34.30
6724;DHT22;3399;52.530;13.304;2023-06-05T13:33:39;27.80;36.90
6724;DHT22;3399;52.530;13.304;2023-06-05T13:36:05;28.00;36.80
6724;DHT22;3399;52.530;13.304;2023-06-05T13:38:31;27.90;37.40
6724;DHT22;3399;52.530;13.304;2023-06-05T13:40:57;27.80;35.50
6724;DHT22;3399;52.530;13.304;2023-06-05T13:43:22;28.00;33.90
6724;DHT22;3399;52.530;13.304;2023-06-05T13:45:48;28.10;36.40
6724;DHT22;3399;52.530;13.304;2023-06-05T13:48:13;28.40;35.80
6724;DHT22;3399;52.530;13.304;2023-06-05T13:50:39;28.50;36.10
6724;DHT22;3399;52.530;13.304;2023-06-05T13:53:05;28.30;36.90
6724;DHT22;3399;52.530;13.304;2023-06-05T13:55:30;27.80;38.60
6724;DHT22;3399;52.530;13.304;2023-06-05T13:57:56;27.90;35.10
6724;DHT22;3399;52.530;13.304;2023-06-05T14:00:26;28.40;34.60
6724;DHT22;3399;52.530;13.304;2023-06-05T14:02:51;28.30;38.70
6724;DHT22;3399;52.530;13.304;2023-06-05T14:05:17;27.90;49.50
6724;DHT22;3399;52.530;13.304;2023-06-05T14:07:42;27.50;41.00
6724;DHT22;3399;52.530;13.304;2023-06-05T14:10:08;27.10;36.90
6724;DHT22;3399;52.530;13.304;2023-06-05T14:12:34;27.20;35.60
6724;DHT22;3399;52.530;13.304;2023-06-05T14:14:59;27.10;39.80
6724;DHT22;3399;52.530;13.304;2023-06-05T14:17:25;27.40;35.70
6724;DHT22;3399;52.530;13.304;2023-06-05T14:19:50;27.50;36.90
6724;DHT22;3399;52.530;13.304;2023-06-05T14:22:16;27.40;38.30
6724;DHT22;3399;52.530;13.304;2023-06-05T14:24:41;27.30;38.00
6724;DHT22;3399;52.530;13.304;2023-06-05T14:27:07;27.60;37.00
6724;DHT22;3399;52.530;13.304;2023-06-05T14:29:34;27.80;36.10
6724;DHT22;3399;52.530;13.304;2023-06-05T14:32:02;27.80;36.40
6724;DHT22;3399;52.530;13.304;2023-06-05T14:34:27;28.00;37.10
6724;DHT22;3399;52.530;13.304;2023-06-05T14:36:53;28.30;32.60
6724;DHT22;3399;52.530;13.304;2023-06-05T14:39:19;28.20;32.40
6724;DHT22;3399;52.530;13.304;2023-06-05T14:41:46;28.00;35.80
6724;DHT22;3399;52.530;13.304;2023-06-05T14:44:11;28.30;33.50
6724;DHT22;3399;52.530;13.304;2023-06-05T14:46:37;28.60;36.20
6724;DHT22;3399;52.530;13.304;2023-06-05T14:49:02;28.10;34.80
6724;DHT22;3399;52.530;13.304;2023-06-05T14:51:28;28.00;39.10
6724;DHT22;3399;52.530;13.304;2023-06-05T14:53:54;28.30;33.20
6724;DHT22;3399;52.530;13.304;2023-06-05T14:56:19;28.30;35.00
6724;DHT22;3399;52.530;13.304;2023-06-05T14:58:45;28.70;34.60
6724;DHT22;3399;52.530;13.304;2023-06-05T15:01:10;28.60;35.70
6724;DHT22;3399;52.530;13.304;2023-06-05T15:03:39;28.80;32.70
6724;DHT22;3399;52.530;13.304;2023-06-05T15:06:05;28.80;34.70
6724;DHT22;3399;52.530;13.304;2023-06-05T15:08:30;28.70;34.20
6724;DHT22;3399;52.530;13.304;2023-06-05T15:10:56;28.70;32.00
6724;DHT22;3399;52.530;13.304;2023-06-05T15:13:21;28.90;34.20
6724;DHT22;3399;52.530;13.304;2023-06-05T15:15:47;28.90;33.40
6724;DHT22;3399;52.530;13.304;2023-06-05T15:18:13;29.00;33.30
6724;DHT22;3399;52.530;13.304;2023-06-05T15:20:38;29.00;31.80
6724;DHT22;3399;52.530;13.304;2023-06-05T15:23:03;28.70;33.80
6724;DHT22;3399;52.530;13.304;2023-06-05T15:25:30;28.60;32.80
6724;DHT22;3399;52.530;13.304;2023-06-05T15:27:56;28.70;32.50
6724;DHT22;3399;52.530;13.304;2023-06-05T15:30:22;28.50;32.10
6724;DHT22;3399;52.530;13.304;2023-06-05T15:32:47;28.50;33.50
6724;DHT22;3399;52.530;13.304;2023-06-05T15:35:13;28.20;34.00
6724;DHT22;3399;52.530;13.304;2023-06-05T15:37:38;28.00;33.00
6724;DHT22;3399;52.530;13.304;2023-06-05T15:40:04;27.80;34.00
6724;DHT22;3399;52.530;13.304;2023-06-05T15:42:35;27.60;32.00
6724;DHT22;3399;52.530;13.304;2023-06-05T15:45:11;27.40;34.30
6724;DHT22;3399;52.530;13.304;2023-06-05T15:47:39;27.40;33.90
6724;DHT22;3399;52.530;13.304;2023-06-05T15:50:05;27.20;33.70
6724;DHT22;3399;52.530;13.304;2023-06-05T15:52:32;27.20;33.90
6724;DHT22;3399;52.530;13.304;2023-06-05T15:54:58;27.10;34.00
6724;DHT22;3399;52.530;13.304;2023-06-05T15:57:24;27.20;34.60
6724;DHT22;3399;52.530;13.304;2023-06-05T15:59:50;27.40;35.50
6724;DHT22;3399;52.530;13.304;2023-06-05T16:02:16;27.40;35.80
6724;DHT22;3399;52.530;13.304;2023-06-05T16:04:41;27.60;35.30
6724;DHT22;3399;52.530;13.304;2023-06-05T16:07:07;27.50;37.00
6724;DHT22;3399;52.530;13.304;2023-06-05T16:09:32;27.70;35.20
6724;DHT22;3399;52.530;13.304;2023-06-05T16:11:58;28.20;34.80